Time,TemperatureF,DewpointF,PressureIn,WindDirection,WindDirectionDegrees,WindSpeedMPH,WindSpeedGustMPH,Humidity,HourlyPrecipIn,Conditions,Clouds,dailyrainin,SoftwareType,DateUTC
2013-04-12 00:00:00,54.2,51.3,29.74,East,90,5.0,9.0,90,0.00,,---,0.00,VWS V14.01,2013-04-12 04:00:00,
2013-04-12 00:03:00,54.1,51.2,29.74,ESE,113,8.0,8.0,90,0.00,,---,0.00,VWS V14.01,2013-04-12 04:03:00,
2013-04-12 00:08:00,54.1,51.2,29.74,ESE,106,8.0,9.0,90,0.00,,---,0.00,VWS V14.01,2013-04-12 04:08:00,
2013-04-12 00:13:00,54.1,51.2,29.73,ESE,108,6.0,7.0,90,0.00,,---,0.00,VWS V14.01,2013-04-12 04:13:00,
2013-04-12 00:19:00,53.8,50.9,29.73,ESE,110,10.0,10.0,90,0.00,,---,0.00,VWS V14.01,2013-04-12 04:19:00,
2013-04-12 00:24:00,53.7,50.8,29.73,ESE,111,6.0,8.0,90,0.00,,---,0.00,VWS V14.01,2013-04-12 04:24:00,
2013-04-12 00:29:00,53.6,51.0,29.73,East,100,10.0,10.0,91,0.00,,---,0.00,VWS V14.01,2013-04-12 04:29:00,
2013-04-12 00:34:00,53.4,50.8,29.73,ESE,114,8.0,10.0,91,0.00,,---,0.00,VWS V14.01,2013-04-12 04:34:00,
2013-04-12 00:39:00,53.3,50.7,29.73,ESE,121,9.0,10.0,91,0.00,,---,0.00,VWS V14.01,2013-04-12 04:39:00,
2013-04-12 00:44:00,53.3,50.7,29.73,ESE,102,5.0,8.0,91,0.00,,---,0.00,VWS V14.01,2013-04-12 04:44:00,
2013-04-12 00:49:00,53.3,51.0,29.73,ESE,115,8.0,10.0,92,0.00,,---,0.00,VWS V14.01,2013-04-12 04:49:00,
2013-04-12 00:54:00,53.2,50.9,29.73,ESE,109,6.0,9.0,92,0.00,,---,0.00,VWS V14.01,2013-04-12 04:54:00,
2013-04-12 00:59:00,53.1,50.8,29.73,ESE,119,7.0,9.0,92,0.00,,---,0.00,VWS V14.01,2013-04-12 04:59:00,
2013-04-12 01:05:00,53.0,50.7,29.73,ESE,115,5.0,9.0,92,0.00,,---,0.00,VWS V14.01,2013-04-12 05:05:00,
2013-04-12 01:10:00,53.0,50.7,29.72,ESE,113,8.0,8.0,92,0.00,,---,0.00,VWS V14.01,2013-04-12 05:10:00,
2013-04-12 01:15:00,52.9,50.6,29.72,East,95,8.0,10.0,92,0.00,,---,0.00,VWS V14.01,2013-04-12 05:15:00,
2013-04-12 01:20:00,52.8,50.8,29.72,East,86,8.0,10.0,93,0.00,,---,0.00,VWS V14.01,2013-04-12 05:20:00,
2013-04-12 01:25:00,52.8,50.8,29.72,SE,140,7.0,12.0,93,0.00,,---,0.00,VWS V14.01,2013-04-12 05:25:00,
2013-04-12 01:30:00,52.7,50.7,29.72,ESE,104,6.0,8.0,93,0.00,,---,0.00,VWS V14.01,2013-04-12 05:30:00,
2013-04-12 01:35:00,52.7,50.7,29.72,East,100,8.0,11.0,93,0.00,,---,0.00,VWS V14.01,2013-04-12 05:35:00,
2013-04-12 01:40:00,52.6,50.9,29.72,ESE,115,9.0,11.0,94,0.00,,---,0.00,VWS V14.01,2013-04-12 05:40:00,
2013-04-12 01:45:00,52.6,50.9,29.72,ESE,118,8.0,12.0,94,0.00,,---,0.00,VWS V14.01,2013-04-12 05:45:00,
2013-04-12 01:50:00,52.5,50.8,29.72,East,82,6.0,10.0,94,0.00,,---,0.00,VWS V14.01,2013-04-12 05:50:00,
2013-04-12 01:55:00,52.6,50.9,29.72,ESE,104,6.0,8.0,94,0.00,,---,0.00,VWS V14.01,2013-04-12 05:55:00,
2013-04-12 02:00:00,52.6,50.9,29.72,ESE,112,6.0,9.0,94,0.00,,---,0.00,VWS V14.01,2013-04-12 06:00:00,
2013-04-12 02:05:00,52.5,50.8,29.72,East,98,7.0,10.0,94,0.00,,---,0.00,VWS V14.01,2013-04-12 06:05:00,
2013-04-12 02:10:00,52.4,50.7,29.72,East,101,4.0,9.0,94,0.00,,---,0.00,VWS V14.01,2013-04-12 06:10:00,
2013-04-12 02:15:00,52.2,50.5,29.71,ESE,120,7.0,8.0,94,0.00,,---,0.00,VWS V14.01,2013-04-12 06:15:00,
2013-04-12 02:21:00,52.0,50.6,29.71,East,97,7.0,7.0,95,0.00,,---,0.00,VWS V14.01,2013-04-12 06:21:00,
2013-04-12 02:28:00,51.9,50.5,29.72,ESE,114,8.0,10.0,95,0.00,,---,0.00,VWS V14.01,2013-04-12 06:28:00,
2013-04-12 02:33:00,51.8,50.4,29.71,ESE,106,4.0,6.0,95,0.00,,---,0.00,VWS V14.01,2013-04-12 06:33:00,
2013-04-12 02:38:00,51.9,50.5,29.72,SE,138,6.0,8.0,95,0.00,,---,0.00,VWS V14.01,2013-04-12 06:38:00,
2013-04-12 02:43:00,51.8,50.4,29.71,ESE,104,6.0,8.0,95,0.00,,---,0.00,VWS V14.01,2013-04-12 06:43:00,
2013-04-12 02:48:00,51.7,50.3,29.71,ESE,114,7.0,7.0,95,0.00,,---,0.00,VWS V14.01,2013-04-12 06:48:00,
2013-04-12 02:53:00,51.6,50.2,29.70,ESE,118,8.0,10.0,95,0.00,,---,0.00,VWS V14.01,2013-04-12 06:53:00,
2013-04-12 02:58:00,51.4,50.3,29.70,ESE,123,7.0,8.0,96,0.00,,---,0.00,VWS V14.01,2013-04-12 06:58:00,
2013-04-12 03:03:00,51.3,50.2,29.70,East,97,6.0,8.0,96,0.00,,---,0.00,VWS V14.01,2013-04-12 07:03:00,
2013-04-12 03:08:00,51.0,49.9,29.69,East,84,7.0,11.0,96,0.00,,---,0.00,VWS V14.01,2013-04-12 07:08:00,
2013-04-12 03:13:00,50.9,49.8,29.68,East,100,6.0,10.0,96,0.00,,---,0.00,VWS V14.01,2013-04-12 07:13:00,
2013-04-12 03:18:00,50.8,49.7,29.68,East,98,10.0,11.0,96,0.00,,---,0.00,VWS V14.01,2013-04-12 07:18:00,
2013-04-12 03:24:00,50.6,49.5,29.69,East,101,7.0,8.0,96,0.00,,---,0.00,VWS V14.01,2013-04-12 07:24:00,
2013-04-12 03:29:00,50.5,49.7,29.69,East,100,5.0,9.0,97,0.00,,---,0.00,VWS V14.01,2013-04-12 07:29:00,
2013-04-12 03:35:00,50.4,49.6,29.69,ESE,114,9.0,11.0,97,0.00,,---,0.00,VWS V14.01,2013-04-12 07:35:00,
2013-04-12 03:40:00,50.4,49.6,29.68,ESE,112,5.0,8.0,97,0.00,,---,0.00,VWS V14.01,2013-04-12 07:40:00,
2013-04-12 03:45:00,50.4,49.6,29.68,ESE,112,6.0,7.0,97,0.00,,---,0.00,VWS V14.01,2013-04-12 07:45:00,
2013-04-12 03:50:00,50.4,49.6,29.68,ESE,108,6.0,9.0,97,0.00,,---,0.00,VWS V14.01,2013-04-12 07:50:00,
2013-04-12 03:55:00,50.3,49.5,29.68,ESE,110,4.0,8.0,97,0.00,,---,0.00,VWS V14.01,2013-04-12 07:55:00,
2013-04-12 04:00:00,50.2,49.4,29.67,East,97,4.0,11.0,97,0.00,,---,0.00,VWS V14.01,2013-04-12 08:00:00,
2013-04-12 04:05:00,50.2,49.4,29.67,SE,124,5.0,7.0,97,0.00,,---,0.00,VWS V14.01,2013-04-12 08:05:00,
2013-04-12 04:10:00,50.2,49.4,29.67,East,82,7.0,9.0,97,0.00,,---,0.00,VWS V14.01,2013-04-12 08:10:00,
2013-04-12 04:15:00,50.1,49.3,29.67,ESE,104,6.0,10.0,97,0.00,,---,0.00,VWS V14.01,2013-04-12 08:15:00,
2013-04-12 04:20:00,50.1,49.3,29.67,ESE,106,6.0,6.0,97,0.00,,---,0.00,VWS V14.01,2013-04-12 08:20:00,
2013-04-12 04:26:00,50.0,49.2,29.66,East,95,3.0,8.0,97,0.00,,---,0.00,VWS V14.01,2013-04-12 08:26:00,
2013-04-12 04:31:00,50.0,49.2,29.66,ESE,118,6.0,6.0,97,0.00,,---,0.00,VWS V14.01,2013-04-12 08:31:00,
2013-04-12 04:36:00,50.0,49.2,29.65,ENE,76,6.0,6.0,97,0.00,,---,0.00,VWS V14.01,2013-04-12 08:36:00,
2013-04-12 04:41:00,49.9,49.4,29.65,ESE,121,4.0,8.0,98,0.00,,---,0.00,VWS V14.01,2013-04-12 08:41:00,
2013-04-12 04:46:00,49.9,49.4,29.66,ESE,121,4.0,4.0,98,0.00,,---,0.00,VWS V14.01,2013-04-12 08:46:00,
2013-04-12 04:52:00,49.7,49.2,29.66,SE,129,4.0,6.0,98,0.00,,---,0.00,VWS V14.01,2013-04-12 08:52:00,
2013-04-12 04:57:00,49.7,49.2,29.65,ESE,114,3.0,5.0,98,0.00,,---,0.00,VWS V14.01,2013-04-12 08:57:00,
2013-04-12 05:02:00,49.7,49.2,29.64,East,101,3.0,6.0,98,0.01,,---,0.01,VWS V14.01,2013-04-12 09:02:00,
2013-04-12 05:07:00,49.6,49.1,29.64,SE,145,5.0,6.0,98,0.01,,---,0.01,VWS V14.01,2013-04-12 09:07:00,
2013-04-12 05:12:00,49.6,49.1,29.64,SE,133,3.0,7.0,98,0.01,,---,0.01,VWS V14.01,2013-04-12 09:12:00,
2013-04-12 05:17:00,49.5,49.0,29.64,SE,136,5.0,7.0,98,0.01,,---,0.01,VWS V14.01,2013-04-12 09:17:00,
2013-04-12 05:23:00,49.5,49.0,29.64,ESE,111,5.0,6.0,98,0.01,,---,0.01,VWS V14.01,2013-04-12 09:23:00,
2013-04-12 05:28:00,49.4,48.9,29.64,ESE,122,5.0,6.0,98,0.01,,---,0.01,VWS V14.01,2013-04-12 09:28:00,
2013-04-12 05:34:00,49.3,48.8,29.63,SE,140,6.0,7.0,98,0.02,,---,0.02,VWS V14.01,2013-04-12 09:34:00,
2013-04-12 05:39:00,49.3,48.8,29.63,ESE,113,2.0,6.0,98,0.02,,---,0.02,VWS V14.01,2013-04-12 09:39:00,
2013-04-12 05:44:00,49.2,48.7,29.64,SSE,156,2.0,6.0,98,0.02,,---,0.02,VWS V14.01,2013-04-12 09:44:00,
2013-04-12 05:49:00,49.2,48.7,29.63,ESE,116,5.0,5.0,98,0.02,,---,0.02,VWS V14.01,2013-04-12 09:49:00,
2013-04-12 05:54:00,49.2,48.7,29.63,ESE,114,3.0,5.0,98,0.02,,---,0.02,VWS V14.01,2013-04-12 09:54:00,
2013-04-12 05:59:00,49.2,48.7,29.63,ESE,111,2.0,5.0,98,0.02,,---,0.02,VWS V14.01,2013-04-12 09:59:00,
2013-04-12 06:04:00,49.2,48.7,29.63,ESE,119,3.0,5.0,98,0.01,,---,0.02,VWS V14.01,2013-04-12 10:04:00,
2013-04-12 06:09:00,49.2,48.7,29.63,East,96,2.0,7.0,98,0.01,,---,0.02,VWS V14.01,2013-04-12 10:09:00,
2013-04-12 06:14:00,49.2,48.7,29.63,SSE,152,4.0,7.0,98,0.02,,---,0.03,VWS V14.01,2013-04-12 10:14:00,
2013-04-12 06:19:00,49.0,48.5,29.63,SSE,150,3.0,5.0,98,0.03,,---,0.04,VWS V14.01,2013-04-12 10:19:00,
2013-04-12 06:24:00,49.1,48.6,29.63,ESE,115,2.0,6.0,98,0.03,,---,0.04,VWS V14.01,2013-04-12 10:24:00,
2013-04-12 06:29:00,49.2,48.7,29.62,East,92,3.0,7.0,98,0.03,,---,0.04,VWS V14.01,2013-04-12 10:29:00,
2013-04-12 06:34:00,49.1,48.6,29.62,East,84,4.0,8.0,98,0.02,,---,0.04,VWS V14.01,2013-04-12 10:34:00,
2013-04-12 06:39:00,49.1,48.6,29.62,ESE,118,6.0,8.0,98,0.02,,---,0.04,VWS V14.01,2013-04-12 10:39:00,
2013-04-12 06:44:00,49.0,48.5,29.61,ESE,113,7.0,9.0,98,0.04,,---,0.06,VWS V14.01,2013-04-12 10:44:00,
2013-04-12 06:49:00,48.9,48.4,29.62,SSW,210,4.0,5.0,98,0.13,,---,0.15,VWS V14.01,2013-04-12 10:49:00,
2013-04-12 06:55:00,48.8,48.3,29.63,ESE,110,4.0,6.0,98,0.15,,---,0.17,VWS V14.01,2013-04-12 10:55:00,
2013-04-12 07:00:00,49.0,48.5,29.65,West,263,3.0,3.0,98,0.16,,---,0.18,VWS V14.01,2013-04-12 11:00:00,
2013-04-12 07:05:00,49.3,48.8,29.68,ENE,67,1.0,2.0,98,0.18,,---,0.20,VWS V14.01,2013-04-12 11:05:00,
2013-04-12 07:10:00,49.5,49.0,29.67,SSE,166,0.0,1.0,98,0.19,,---,0.21,VWS V14.01,2013-04-12 11:10:00,
2013-04-12 07:15:00,49.7,49.2,29.68,SE,130,0.0,0.0,98,0.19,,---,0.22,VWS V14.01,2013-04-12 11:15:00,
2013-04-12 07:20:00,49.4,48.9,29.68,ESE,113,0.0,1.0,98,0.19,,---,0.23,VWS V14.01,2013-04-12 11:20:00,
2013-04-12 07:26:00,49.3,48.8,29.69,ESE,113,0.0,0.0,98,0.20,,---,0.24,VWS V14.01,2013-04-12 11:26:00,
2013-04-12 07:31:00,49.3,48.8,29.67,East,84,1.0,1.0,98,0.22,,---,0.26,VWS V14.01,2013-04-12 11:31:00,
2013-04-12 07:36:00,49.4,48.9,29.67,ENE,64,2.0,2.0,98,0.23,,---,0.27,VWS V14.01,2013-04-12 11:36:00,
2013-04-12 07:42:00,49.3,48.8,29.67,East,101,1.0,2.0,98,0.22,,---,0.27,VWS V14.01,2013-04-12 11:42:00,
2013-04-12 07:47:00,49.2,48.7,29.67,SE,125,2.0,3.0,98,0.19,,---,0.28,VWS V14.01,2013-04-12 11:47:00,
2013-04-12 07:52:00,49.2,48.7,29.67,ESE,120,3.0,4.0,98,0.13,,---,0.29,VWS V14.01,2013-04-12 11:52:00,
2013-04-12 07:57:00,49.3,48.8,29.66,ESE,114,3.0,3.0,98,0.13,,---,0.30,VWS V14.01,2013-04-12 11:57:00,
2013-04-12 08:02:00,49.2,48.7,29.66,ESE,123,3.0,4.0,98,0.13,,---,0.31,VWS V14.01,2013-04-12 12:02:00,
2013-04-12 08:07:00,49.2,48.7,29.65,East,101,4.0,4.0,98,0.11,,---,0.31,VWS V14.01,2013-04-12 12:07:00,
2013-04-12 08:12:00,49.1,48.6,29.65,ESE,117,2.0,3.0,98,0.11,,---,0.32,VWS V14.01,2013-04-12 12:12:00,
2013-04-12 08:17:00,49.1,48.6,29.64,SE,131,4.0,4.0,98,0.12,,---,0.34,VWS V14.01,2013-04-12 12:17:00,
2013-04-12 08:22:00,48.9,48.4,29.63,ESE,116,3.0,4.0,98,0.12,,---,0.35,VWS V14.01,2013-04-12 12:22:00,
2013-04-12 08:27:00,49.0,48.5,29.63,SSE,153,2.0,4.0,98,0.11,,---,0.35,VWS V14.01,2013-04-12 12:27:00,
2013-04-12 08:33:00,49.1,48.6,29.64,SE,132,3.0,3.0,98,0.10,,---,0.36,VWS V14.01,2013-04-12 12:33:00,
2013-04-12 08:38:00,49.2,48.7,29.64,SE,129,3.0,4.0,98,0.09,,---,0.36,VWS V14.01,2013-04-12 12:38:00,
2013-04-12 08:43:00,49.2,48.7,29.64,ESE,113,4.0,5.0,98,0.09,,---,0.36,VWS V14.01,2013-04-12 12:43:00,
2013-04-12 08:48:00,49.4,48.9,29.64,SE,136,3.0,4.0,98,0.08,,---,0.36,VWS V14.01,2013-04-12 12:48:00,
2013-04-12 08:53:00,49.6,49.1,29.64,ESE,108,5.0,6.0,98,0.07,,---,0.36,VWS V14.01,2013-04-12 12:53:00,
2013-04-12 08:58:00,49.7,49.2,29.64,ESE,107,4.0,6.0,98,0.06,,---,0.36,VWS V14.01,2013-04-12 12:58:00,
2013-04-12 09:03:00,49.7,49.2,29.64,ESE,117,5.0,6.0,98,0.05,,---,0.36,VWS V14.01,2013-04-12 13:03:00,
2013-04-12 09:08:00,49.7,49.2,29.64,ESE,108,4.0,5.0,98,0.05,,---,0.36,VWS V14.01,2013-04-12 13:08:00,
2013-04-12 09:13:00,49.7,49.2,29.64,ESE,114,4.0,4.0,98,0.04,,---,0.36,VWS V14.01,2013-04-12 13:13:00,
2013-04-12 09:18:00,49.8,49.3,29.64,SE,124,4.0,6.0,98,0.02,,---,0.36,VWS V14.01,2013-04-12 13:18:00,
2013-04-12 09:24:00,49.8,49.3,29.64,SE,136,3.0,6.0,98,0.01,,---,0.36,VWS V14.01,2013-04-12 13:24:00,
2013-04-12 09:29:00,49.8,49.3,29.64,ESE,109,4.0,6.0,98,0.00,,---,0.36,VWS V14.01,2013-04-12 13:29:00,
2013-04-12 09:35:00,49.9,49.4,29.64,ESE,114,4.0,4.0,98,0.00,,---,0.36,VWS V14.01,2013-04-12 13:35:00,
2013-04-12 09:40:00,50.0,49.5,29.64,ESE,119,3.0,4.0,98,0.00,,---,0.36,VWS V14.01,2013-04-12 13:40:00,
2013-04-12 09:45:00,50.1,49.6,29.64,ESE,113,4.0,4.0,98,0.00,,---,0.36,VWS V14.01,2013-04-12 13:45:00,
2013-04-12 09:50:00,50.4,49.9,29.63,ESE,121,3.0,6.0,98,0.00,,---,0.36,VWS V14.01,2013-04-12 13:50:00,
2013-04-12 09:55:00,50.7,50.2,29.63,ESE,107,4.0,5.0,98,0.00,,---,0.36,VWS V14.01,2013-04-12 13:55:00,
2013-04-12 10:00:00,50.6,50.1,29.63,ESE,122,4.0,4.0,98,0.00,,---,0.36,VWS V14.01,2013-04-12 14:00:00,
2013-04-12 10:05:00,51.0,50.5,29.63,ESE,105,4.0,6.0,98,0.00,,---,0.36,VWS V14.01,2013-04-12 14:05:00,
2013-04-12 10:10:00,50.9,50.4,29.63,SE,132,3.0,5.0,98,0.00,,---,0.36,VWS V14.01,2013-04-12 14:10:00,
2013-04-12 10:15:00,51.0,50.5,29.63,ESE,115,3.0,3.0,98,0.00,,---,0.36,VWS V14.01,2013-04-12 14:15:00,
2013-04-12 10:21:00,50.9,50.4,29.63,SE,129,2.0,2.0,98,0.00,,---,0.36,VWS V14.01,2013-04-12 14:21:00,
2013-04-12 10:26:00,51.1,50.6,29.63,ESE,114,2.0,3.0,98,0.00,,---,0.36,VWS V14.01,2013-04-12 14:26:00,
2013-04-12 10:31:00,51.3,50.8,29.64,SE,129,2.0,2.0,98,0.00,,---,0.36,VWS V14.01,2013-04-12 14:31:00,
2013-04-12 10:36:00,51.4,50.9,29.64,SE,140,0.0,1.0,98,0.00,,---,0.36,VWS V14.01,2013-04-12 14:36:00,
2013-04-12 10:42:00,51.4,50.9,29.64,SE,132,1.0,2.0,98,0.00,,---,0.36,VWS V14.01,2013-04-12 14:42:00,
2013-04-12 10:47:00,51.6,51.1,29.63,ESE,114,1.0,2.0,98,0.00,,---,0.36,VWS V14.01,2013-04-12 14:47:00,
2013-04-12 10:52:00,52.1,51.5,29.64,ESE,112,2.0,2.0,98,0.00,,---,0.36,VWS V14.01,2013-04-12 14:52:00,
2013-04-12 10:57:00,52.3,51.8,29.64,ESE,114,2.0,2.0,98,0.00,,---,0.36,VWS V14.01,2013-04-12 14:57:00,
2013-04-12 11:02:00,52.6,52.0,29.64,ESE,104,2.0,2.0,98,0.00,,---,0.36,VWS V14.01,2013-04-12 15:02:00,
2013-04-12 11:07:00,52.6,52.0,29.64,ESE,115,2.0,2.0,98,0.00,,---,0.36,VWS V14.01,2013-04-12 15:07:00,
2013-04-12 11:12:00,53.1,52.5,29.64,SE,128,1.0,2.0,98,0.00,,---,0.36,VWS V14.01,2013-04-12 15:12:00,
2013-04-12 11:17:00,53.5,53.0,29.64,East,87,1.0,3.0,98,0.00,,---,0.36,VWS V14.01,2013-04-12 15:17:00,
2013-04-12 11:22:00,53.6,53.0,29.64,SE,136,2.0,2.0,98,0.00,,---,0.36,VWS V14.01,2013-04-12 15:22:00,
2013-04-12 11:27:00,53.9,53.3,29.64,SE,134,2.0,3.0,98,0.00,,---,0.36,VWS V14.01,2013-04-12 15:27:00,
2013-04-12 11:32:00,54.1,53.5,29.64,SE,130,1.0,3.0,98,0.00,,---,0.36,VWS V14.01,2013-04-12 15:32:00,
2013-04-12 11:37:00,54.0,53.5,29.64,ESE,103,3.0,3.0,98,0.00,,---,0.36,VWS V14.01,2013-04-12 15:37:00,
2013-04-12 11:42:00,53.7,53.2,29.64,ESE,107,2.0,2.0,98,0.00,,---,0.36,VWS V14.01,2013-04-12 15:42:00,
2013-04-12 11:47:00,53.8,53.2,29.64,ESE,118,1.0,2.0,98,0.00,,---,0.36,VWS V14.01,2013-04-12 15:47:00,
2013-04-12 11:53:00,53.8,53.2,29.64,SE,124,4.0,4.0,98,0.00,,---,0.36,VWS V14.01,2013-04-12 15:53:00,
2013-04-12 11:58:00,53.8,53.2,29.64,SE,124,2.0,2.0,98,0.00,,---,0.36,VWS V14.01,2013-04-12 15:58:00,
2013-04-12 12:03:00,53.9,53.3,29.64,SE,139,3.0,3.0,98,0.00,,---,0.36,VWS V14.01,2013-04-12 16:03:00,
2013-04-12 12:08:00,53.9,53.3,29.64,SE,124,3.0,3.0,98,0.00,,---,0.36,VWS V14.01,2013-04-12 16:08:00,
2013-04-12 12:13:00,54.1,53.5,29.63,ESE,114,3.0,3.0,98,0.00,,---,0.36,VWS V14.01,2013-04-12 16:13:00,
2013-04-12 12:18:00,54.4,53.8,29.63,ESE,118,2.0,3.0,98,0.00,,---,0.36,VWS V14.01,2013-04-12 16:18:00,
2013-04-12 12:23:00,54.9,54.3,29.63,SSE,149,2.0,3.0,98,0.00,,---,0.36,VWS V14.01,2013-04-12 16:23:00,
2013-04-12 12:29:00,55.0,54.5,29.63,East,96,1.0,1.0,98,0.00,,---,0.36,VWS V14.01,2013-04-12 16:29:00,
2013-04-12 12:34:00,55.4,54.8,29.63,East,100,1.0,2.0,98,0.00,,---,0.36,VWS V14.01,2013-04-12 16:34:00,
2013-04-12 12:39:00,55.4,54.6,29.63,East,91,2.0,3.0,97,0.00,,---,0.36,VWS V14.01,2013-04-12 16:39:00,
2013-04-12 12:44:00,55.2,54.4,29.63,SE,128,3.0,3.0,97,0.00,,---,0.36,VWS V14.01,2013-04-12 16:44:00,
2013-04-12 12:49:00,55.2,54.4,29.63,East,98,2.0,4.0,97,0.00,,---,0.36,VWS V14.01,2013-04-12 16:49:00,
2013-04-12 12:54:00,55.3,54.5,29.63,ESE,112,2.0,2.0,97,0.00,,---,0.36,VWS V14.01,2013-04-12 16:54:00,
2013-04-12 12:59:00,55.2,54.4,29.62,East,101,1.0,2.0,97,0.00,,---,0.36,VWS V14.01,2013-04-12 16:59:00,
2013-04-12 13:04:00,55.3,54.5,29.63,East,100,2.0,2.0,97,0.00,,---,0.36,VWS V14.01,2013-04-12 17:04:00,
2013-04-12 13:10:00,55.4,54.6,29.62,ESE,113,1.0,1.0,97,0.00,,---,0.36,VWS V14.01,2013-04-12 17:10:00,
2013-04-12 13:15:00,55.7,54.9,29.62,East,90,1.0,2.0,97,0.00,,---,0.36,VWS V14.01,2013-04-12 17:15:00,
2013-04-12 13:20:00,56.0,55.2,29.62,ESE,107,1.0,2.0,97,0.00,,---,0.36,VWS V14.01,2013-04-12 17:20:00,
2013-04-12 13:25:00,56.3,55.2,29.62,ESE,103,1.0,2.0,96,0.00,,---,0.36,VWS V14.01,2013-04-12 17:25:00,
2013-04-12 13:30:00,56.7,55.6,29.62,ESE,106,2.0,2.0,96,0.00,,---,0.36,VWS V14.01,2013-04-12 17:30:00,
2013-04-12 13:35:00,56.9,55.5,29.62,ESE,120,1.0,3.0,95,0.00,,---,0.36,VWS V14.01,2013-04-12 17:35:00,
2013-04-12 13:40:00,57.3,55.9,29.61,East,97,1.0,3.0,95,0.00,,---,0.36,VWS V14.01,2013-04-12 17:40:00,
2013-04-12 13:47:00,58.0,56.6,29.61,East,94,2.0,2.0,95,0.00,,---,0.36,VWS V14.01,2013-04-12 17:47:00,
2013-04-12 13:52:00,58.4,56.7,29.61,ESE,109,2.0,4.0,94,0.00,,---,0.36,VWS V14.01,2013-04-12 17:52:00,
2013-04-12 13:57:00,58.6,56.6,29.61,ESE,112,2.0,3.0,93,0.00,,---,0.36,VWS V14.01,2013-04-12 17:57:00,
2013-04-12 14:02:00,58.6,56.6,29.60,ESE,110,2.0,3.0,93,0.00,,---,0.36,VWS V14.01,2013-04-12 18:02:00,
2013-04-12 14:07:00,58.6,56.6,29.60,ESE,106,3.0,4.0,93,0.00,,---,0.36,VWS V14.01,2013-04-12 18:07:00,
2013-04-12 14:13:00,59.0,57.0,29.60,East,100,2.0,3.0,93,0.00,,---,0.36,VWS V14.01,2013-04-12 18:13:00,
2013-04-12 14:18:00,59.7,57.4,29.60,SSE,151,2.0,3.0,92,0.00,,---,0.36,VWS V14.01,2013-04-12 18:18:00,
2013-04-12 14:23:00,60.2,57.3,29.59,East,91,3.0,4.0,90,0.00,,---,0.36,VWS V14.01,2013-04-12 18:23:00,
2013-04-12 14:29:00,60.4,58.1,29.59,East,96,2.0,3.0,92,0.00,,---,0.36,VWS V14.01,2013-04-12 18:29:00,
2013-04-12 15:26:00,64.1,59.2,29.58,SSE,160,0.0,2.0,84,0.00,,---,0.36,VWS V14.01,2013-04-12 19:26:00,
2013-04-12 15:28:00,64.3,59.7,29.58,ESE,102,1.0,3.0,85,0.00,,---,0.36,VWS V14.01,2013-04-12 19:28:00,
2013-04-12 15:29:00,64.5,59.9,29.58,ESE,122,3.0,3.0,85,0.00,,---,0.36,VWS V14.01,2013-04-12 19:29:00,
2013-04-12 15:34:00,64.8,59.9,29.58,ESE,110,2.0,3.0,84,0.00,,---,0.36,VWS V14.01,2013-04-12 19:34:00,
2013-04-12 15:39:00,64.4,59.5,29.58,ESE,118,0.0,3.0,84,0.00,,---,0.36,VWS V14.01,2013-04-12 19:39:00,
2013-04-12 15:44:00,64.8,59.9,29.58,ESE,107,2.0,3.0,84,0.00,,---,0.36,VWS V14.01,2013-04-12 19:44:00,
2013-04-12 15:49:00,65.0,59.7,29.58,SSE,155,0.0,0.0,83,0.00,,---,0.36,VWS V14.01,2013-04-12 19:49:00,
2013-04-12 15:55:00,65.1,59.5,29.58,ESE,122,1.0,2.0,82,0.00,,---,0.36,VWS V14.01,2013-04-12 19:55:00,
2013-04-12 16:00:00,65.4,60.1,29.57,SE,132,2.0,3.0,83,0.00,,---,0.36,VWS V14.01,2013-04-12 20:00:00,
2013-04-12 16:05:00,65.2,59.9,29.58,East,79,1.0,2.0,83,0.00,,---,0.36,VWS V14.01,2013-04-12 20:05:00,
2013-04-12 16:10:00,65.0,60.0,29.58,East,96,1.0,2.0,84,0.00,,---,0.36,VWS V14.01,2013-04-12 20:10:00,
2013-04-12 16:15:00,65.2,60.2,29.58,ENE,63,2.0,3.0,84,0.00,,---,0.36,VWS V14.01,2013-04-12 20:15:00,
2013-04-12 16:20:00,64.6,59.3,29.58,SE,140,2.0,2.0,83,0.00,,---,0.36,VWS V14.01,2013-04-12 20:20:00,
2013-04-12 16:25:00,64.1,59.2,29.58,East,94,0.0,2.0,84,0.00,,---,0.36,VWS V14.01,2013-04-12 20:25:00,
2013-04-12 16:30:00,64.0,59.1,29.58,ENE,68,1.0,2.0,84,0.00,,---,0.36,VWS V14.01,2013-04-12 20:30:00,
2013-04-12 16:35:00,64.0,59.4,29.58,East,94,0.0,2.0,85,0.00,,---,0.36,VWS V14.01,2013-04-12 20:35:00,
2013-04-12 16:40:00,63.9,59.3,29.58,East,89,1.0,1.0,85,0.00,,---,0.36,VWS V14.01,2013-04-12 20:40:00,
2013-04-12 16:45:00,63.6,59.0,29.57,ESE,109,2.0,2.0,85,0.00,,---,0.36,VWS V14.01,2013-04-12 20:45:00,
2013-04-12 16:50:00,63.0,58.8,29.57,East,89,1.0,1.0,86,0.00,,---,0.36,VWS V14.01,2013-04-12 20:50:00,
2013-04-12 16:55:00,62.7,58.8,29.57,SE,142,1.0,1.0,87,0.00,,---,0.36,VWS V14.01,2013-04-12 20:55:00,
2013-04-12 17:01:00,62.4,58.5,29.58,SE,133,1.0,1.0,87,0.00,,---,0.36,VWS V14.01,2013-04-12 21:01:00,
2013-04-12 17:06:00,62.2,58.6,29.58,SE,129,0.0,0.0,88,0.00,,---,0.36,VWS V14.01,2013-04-12 21:06:00,
2013-04-12 17:11:00,62.0,58.4,29.58,SE,125,0.0,0.0,88,0.00,,---,0.36,VWS V14.01,2013-04-12 21:11:00,
2013-04-12 17:16:00,61.9,58.6,29.59,SE,124,0.0,0.0,89,0.00,,---,0.36,VWS V14.01,2013-04-12 21:16:00,
2013-04-12 17:22:00,61.6,58.6,29.58,ESE,105,0.0,0.0,90,0.01,,---,0.37,VWS V14.01,2013-04-12 21:22:00,
2013-04-12 17:27:00,61.2,58.9,29.57,East,89,0.0,1.0,92,0.01,,---,0.37,VWS V14.01,2013-04-12 21:27:00,
2013-04-12 17:32:00,60.9,58.9,29.58,NE,43,0.0,0.0,93,0.01,,---,0.37,VWS V14.01,2013-04-12 21:32:00,
2013-04-12 17:37:00,60.5,58.5,29.59,ESE,105,0.0,0.0,93,0.02,,---,0.38,VWS V14.01,2013-04-12 21:37:00,
2013-04-12 17:42:00,60.3,58.3,29.58,ENE,72,0.0,0.0,93,0.02,,---,0.38,VWS V14.01,2013-04-12 21:42:00,
2013-04-12 17:47:00,60.1,58.1,29.59,NE,41,0.0,1.0,93,0.02,,---,0.38,VWS V14.01,2013-04-12 21:47:00,
2013-04-12 17:52:00,59.8,57.5,29.59,SW,232,0.0,0.0,92,0.02,,---,0.38,VWS V14.01,2013-04-12 21:52:00,
2013-04-12 17:57:00,59.3,57.0,29.60,NW,316,0.0,1.0,92,0.02,,---,0.38,VWS V14.01,2013-04-12 21:57:00,
2013-04-12 18:02:00,59.0,57.0,29.59,NNW,330,0.0,1.0,93,0.02,,---,0.38,VWS V14.01,2013-04-12 22:02:00,
2013-04-12 18:07:00,58.8,56.8,29.60,NNW,329,0.0,0.0,93,0.03,,---,0.39,VWS V14.01,2013-04-12 22:07:00,
2013-04-12 18:12:00,58.6,56.9,29.60,West,261,0.0,0.0,94,0.04,,---,0.40,VWS V14.01,2013-04-12 22:12:00,
2013-04-12 18:18:00,58.4,56.7,29.59,WNW,297,0.0,0.0,94,0.04,,---,0.40,VWS V14.01,2013-04-12 22:18:00,
2013-04-12 18:23:00,58.2,56.5,29.60,NNW,345,0.0,0.0,94,0.03,,---,0.40,VWS V14.01,2013-04-12 22:23:00,
2013-04-12 18:27:00,57.8,56.1,29.60,NW,312,0.0,0.0,94,0.03,,---,0.40,VWS V14.01,2013-04-12 22:27:00,
2013-04-12 18:33:00,57.5,55.8,29.60,NW,322,0.0,0.0,94,0.03,,---,0.40,VWS V14.01,2013-04-12 22:33:00,
2013-04-12 18:38:00,57.2,55.8,29.60,North,352,0.0,0.0,95,0.02,,---,0.40,VWS V14.01,2013-04-12 22:38:00,
2013-04-12 18:43:00,56.9,55.5,29.60,NNW,333,0.0,1.0,95,0.02,,---,0.40,VWS V14.01,2013-04-12 22:43:00,
2013-04-12 18:48:00,56.6,55.2,29.60,NNW,330,0.0,1.0,95,0.02,,---,0.40,VWS V14.01,2013-04-12 22:48:00,
2013-04-12 18:53:00,56.2,54.8,29.60,NNE,17,0.0,1.0,95,0.02,,---,0.40,VWS V14.01,2013-04-12 22:53:00,
2013-04-12 18:58:00,56.0,54.6,29.60,WNW,297,0.0,0.0,95,0.02,,---,0.40,VWS V14.01,2013-04-12 22:58:00,
2013-04-12 19:03:00,55.9,54.5,29.61,NW,311,0.0,1.0,95,0.02,,---,0.40,VWS V14.01,2013-04-12 23:03:00,
2013-04-12 19:09:00,55.7,54.3,29.60,NW,307,0.0,0.0,95,0.01,,---,0.40,VWS V14.01,2013-04-12 23:09:00,
2013-04-12 19:14:00,55.5,54.4,29.61,WNW,303,1.0,1.0,96,0.00,,---,0.40,VWS V14.01,2013-04-12 23:14:00,
2013-04-12 19:19:00,55.5,54.4,29.61,West,281,0.0,0.0,96,0.00,,---,0.40,VWS V14.01,2013-04-12 23:19:00,
2013-04-12 19:24:00,55.4,54.3,29.61,North,359,0.0,1.0,96,0.00,,---,0.40,VWS V14.01,2013-04-12 23:24:00,
2013-04-12 19:29:00,55.3,54.2,29.61,North,5,0.0,0.0,96,0.00,,---,0.40,VWS V14.01,2013-04-12 23:29:00,
2013-04-12 19:34:00,55.3,54.2,29.62,North,1,0.0,0.0,96,0.00,,---,0.40,VWS V14.01,2013-04-12 23:34:00,
2013-04-12 19:39:00,55.3,54.2,29.62,NNW,347,0.0,1.0,96,0.00,,---,0.40,VWS V14.01,2013-04-12 23:39:00,
2013-04-12 19:44:00,55.2,54.1,29.62,WNW,294,0.0,1.0,96,0.00,,---,0.40,VWS V14.01,2013-04-12 23:44:00,
2013-04-12 19:49:00,55.1,54.0,29.62,WNW,293,0.0,0.0,96,0.00,,---,0.40,VWS V14.01,2013-04-12 23:49:00,
2013-04-12 19:54:00,55.0,53.9,29.62,WNW,294,0.0,0.0,96,0.00,,---,0.40,VWS V14.01,2013-04-12 23:54:00,
2013-04-12 19:59:00,54.8,53.7,29.63,WNW,293,0.0,1.0,96,0.00,,---,0.40,VWS V14.01,2013-04-12 23:59:00,
2013-04-12 20:04:00,54.7,53.6,29.63,WNW,294,0.0,0.0,96,0.00,,---,0.40,VWS V14.01,2013-04-13 00:04:00,
2013-04-12 20:10:00,54.6,53.5,29.63,WNW,293,0.0,0.0,96,0.00,,---,0.40,VWS V14.01,2013-04-13 00:10:00,
2013-04-12 20:15:00,54.5,53.4,29.63,WNW,294,1.0,1.0,96,0.00,,---,0.40,VWS V14.01,2013-04-13 00:15:00,
2013-04-12 20:20:00,54.4,53.3,29.63,NW,319,0.0,0.0,96,0.00,,---,0.40,VWS V14.01,2013-04-13 00:20:00,
2013-04-12 20:25:00,54.3,53.2,29.64,NW,316,0.0,0.0,96,0.00,,---,0.40,VWS V14.01,2013-04-13 00:25:00,
2013-04-12 20:30:00,53.9,52.8,29.65,WNW,301,0.0,2.0,96,0.00,,---,0.40,VWS V14.01,2013-04-13 00:30:00,
2013-04-12 20:35:00,53.6,52.5,29.65,WNW,297,0.0,3.0,96,0.00,,---,0.40,VWS V14.01,2013-04-13 00:35:00,
2013-04-12 20:40:00,53.4,52.3,29.65,WNW,301,0.0,0.0,96,0.00,,---,0.40,VWS V14.01,2013-04-13 00:40:00,
2013-04-12 20:45:00,53.2,52.1,29.65,West,281,0.0,0.0,96,0.00,,---,0.40,VWS V14.01,2013-04-13 00:45:00,
2013-04-12 20:50:00,53.0,51.9,29.66,WNW,283,0.0,0.0,96,0.00,,---,0.40,VWS V14.01,2013-04-13 00:50:00,
2013-04-12 20:55:00,52.8,51.7,29.66,West,259,1.0,1.0,96,0.00,,---,0.40,VWS V14.01,2013-04-13 00:55:00,
2013-04-12 21:00:00,52.5,51.1,29.66,WNW,297,0.0,0.0,95,0.00,,---,0.40,VWS V14.01,2013-04-13 01:00:00,
2013-04-12 21:05:00,52.3,50.9,29.67,North,359,1.0,1.0,95,0.00,,---,0.40,VWS V14.01,2013-04-13 01:05:00,
2013-04-12 21:10:00,52.1,51.0,29.67,North,350,0.0,1.0,96,0.00,,---,0.40,VWS V14.01,2013-04-13 01:10:00,
2013-04-12 21:15:00,51.9,50.8,29.68,NW,308,0.0,2.0,96,0.00,,---,0.40,VWS V14.01,2013-04-13 01:15:00,
2013-04-12 21:20:00,51.7,50.6,29.68,NW,305,2.0,2.0,96,0.00,,---,0.40,VWS V14.01,2013-04-13 01:20:00,
2013-04-12 21:25:00,51.6,50.5,29.69,WNW,302,0.0,0.0,96,0.00,,---,0.40,VWS V14.01,2013-04-13 01:25:00,
2013-04-12 21:31:00,51.4,50.3,29.69,NNW,338,0.0,0.0,96,0.00,,---,0.40,VWS V14.01,2013-04-13 01:31:00,
2013-04-12 21:36:00,51.3,50.2,29.69,North,11,0.0,0.0,96,0.00,,---,0.40,VWS V14.01,2013-04-13 01:36:00,
2013-04-12 21:41:00,51.2,50.1,29.69,NNW,330,1.0,1.0,96,0.00,,---,0.40,VWS V14.01,2013-04-13 01:41:00,
2013-04-12 21:46:00,51.1,50.0,29.70,NNW,333,0.0,1.0,96,0.00,,---,0.40,VWS V14.01,2013-04-13 01:46:00,
2013-04-12 21:51:00,50.9,49.8,29.70,WNW,282,0.0,0.0,96,0.00,,---,0.40,VWS V14.01,2013-04-13 01:51:00,
2013-04-12 21:57:00,50.7,49.6,29.70,West,274,0.0,0.0,96,0.00,,---,0.40,VWS V14.01,2013-04-13 01:57:00,
2013-04-12 22:02:00,50.5,49.4,29.70,NW,323,0.0,0.0,96,0.00,,---,0.40,VWS V14.01,2013-04-13 02:02:00,
2013-04-12 22:07:00,50.5,49.4,29.70,NW,323,0.0,0.0,96,0.00,,---,0.40,VWS V14.01,2013-04-13 02:07:00,
2013-04-12 22:12:00,50.4,49.6,29.71,NW,308,0.0,1.0,97,0.00,,---,0.40,VWS V14.01,2013-04-13 02:12:00,
2013-04-12 22:17:00,50.1,49.0,29.71,NW,314,0.0,0.0,96,0.00,,---,0.40,VWS V14.01,2013-04-13 02:17:00,
2013-04-12 22:22:00,49.9,48.8,29.72,West,259,1.0,3.0,96,0.00,,---,0.40,VWS V14.01,2013-04-13 02:22:00,
2013-04-12 22:27:00,49.9,49.1,29.72,WNW,293,2.0,2.0,97,0.00,,---,0.40,VWS V14.01,2013-04-13 02:27:00,
2013-04-12 22:32:00,49.7,48.9,29.72,WNW,301,1.0,2.0,97,0.00,,---,0.40,VWS V14.01,2013-04-13 02:32:00,
2013-04-12 22:37:00,49.8,49.0,29.73,WNW,297,0.0,1.0,97,0.00,,---,0.40,VWS V14.01,2013-04-13 02:37:00,
2013-04-12 22:43:00,49.9,49.1,29.73,NW,321,1.0,2.0,97,0.00,,---,0.40,VWS V14.01,2013-04-13 02:43:00,
2013-04-12 22:48:00,49.6,48.8,29.74,WNW,293,1.0,1.0,97,0.00,,---,0.40,VWS V14.01,2013-04-13 02:48:00,
2013-04-12 22:53:00,49.4,48.6,29.75,NW,307,0.0,2.0,97,0.00,,---,0.40,VWS V14.01,2013-04-13 02:53:00,
2013-04-12 22:58:00,49.3,48.5,29.75,WNW,297,1.0,4.0,97,0.00,,---,0.40,VWS V14.01,2013-04-13 02:58:00,
2013-04-12 23:03:00,49.1,48.3,29.76,NNW,332,1.0,2.0,97,0.00,,---,0.40,VWS V14.01,2013-04-13 03:03:00,
2013-04-12 23:08:00,48.9,48.1,29.76,NW,323,0.0,2.0,97,0.00,,---,0.40,VWS V14.01,2013-04-13 03:08:00,
2013-04-12 23:13:00,48.6,47.5,29.76,NNW,330,0.0,3.0,96,0.00,,---,0.40,VWS V14.01,2013-04-13 03:13:00,
2013-04-12 23:19:00,48.2,47.1,29.76,West,260,1.0,3.0,96,0.00,,---,0.40,VWS V14.01,2013-04-13 03:19:00,
2013-04-12 23:24:00,47.7,46.1,29.76,NNW,337,1.0,2.0,94,0.00,,---,0.40,VWS V14.01,2013-04-13 03:24:00,
2013-04-12 23:29:00,47.6,44.2,29.76,WNW,283,4.0,4.0,88,0.00,,---,0.40,VWS V14.01,2013-04-13 03:29:00,
2013-04-12 23:34:00,47.8,43.5,29.76,NNE,15,4.0,4.0,85,0.00,,---,0.40,VWS V14.01,2013-04-13 03:34:00,
2013-04-12 23:39:00,47.7,42.8,29.77,NW,316,1.0,2.0,83,0.00,,---,0.40,VWS V14.01,2013-04-13 03:39:00,
2013-04-12 23:44:00,47.5,42.3,29.77,NW,316,0.0,3.0,82,0.00,,---,0.40,VWS V14.01,2013-04-13 03:44:00,
2013-04-12 23:49:00,47.6,41.8,29.77,NNW,330,0.0,0.0,80,0.00,,---,0.40,VWS V14.01,2013-04-13 03:49:00,
2013-04-12 23:55:00,47.5,41.7,29.78,WNW,293,2.0,2.0,80,0.00,,---,0.40,VWS V14.01,2013-04-13 03:55:00,